createdAt,value
2022-10-12T00:00:31.333Z,7.15
2022-10-12T00:01:33.902Z,6.78
2022-10-12T00:02:35.519Z,6.15
2022-10-12T00:03:38.391Z,6.40
2022-10-12T00:04:39.916Z,6.72
2022-10-12T00:05:42.930Z,6.55
2022-10-12T00:06:44.546Z,6.20
2022-10-12T00:07:48.856Z,7.93
2022-10-12T00:08:52.291Z,7.10
2022-10-12T00:09:54.790Z,7.00
2022-10-12T00:10:59.087Z,6.38
2022-10-12T00:12:01.576Z,6.47
2022-10-12T00:13:03.101Z,6.35
2022-10-12T00:14:05.764Z,6.25
2022-10-12T00:15:08.127Z,6.60
2022-10-12T00:16:12.421Z,5.88
2022-10-12T00:17:13.939Z,6.55
2022-10-12T00:18:16.472Z,6.35
2022-10-12T00:19:18.021Z,6.20
2022-10-12T00:20:20.551Z,6.68
2022-10-12T00:21:23.362Z,5.93
2022-10-12T00:22:25.919Z,6.28
2022-10-12T00:23:29.672Z,6.15
2022-10-12T00:24:32.384Z,5.50
2022-10-12T00:25:36.412Z,6.30
2022-10-12T00:26:38.996Z,5.72
2022-10-12T00:27:40.569Z,5.75
2022-10-12T00:28:43.302Z,6.60
2022-10-12T00:29:44.947Z,5.80
2022-10-12T00:30:47.695Z,6.15
2022-10-12T00:31:49.416Z,6.72
2022-10-12T00:32:52.142Z,5.85
2022-10-12T00:33:55.073Z,5.72
2022-10-12T00:34:57.634Z,6.35
2022-10-12T00:35:59.213Z,5.82
2022-10-12T00:37:01.676Z,5.90
2022-10-12T00:38:04.569Z,6.15
2022-10-12T00:39:11.126Z,5.75
2022-10-12T00:40:14.113Z,6.00
2022-10-12T00:41:19.347Z,5.97
2022-10-12T00:42:21.327Z,5.72
2022-10-12T00:43:29.858Z,5.88
2022-10-12T00:44:35.671Z,5.85
2022-10-12T00:45:38.167Z,5.07
2022-10-12T00:46:42.083Z,5.60
2022-10-12T00:47:50.206Z,6.43
2022-10-12T00:48:56.278Z,6.10
2022-10-12T00:50:04.863Z,6.13
2022-10-12T00:51:08.026Z,7.47
2022-10-12T00:52:13.753Z,5.93
2022-10-12T00:53:18.651Z,5.90
2022-10-12T00:54:24.881Z,6.03
2022-10-12T00:55:28.733Z,5.35
2022-10-12T00:56:34.625Z,5.90
2022-10-12T00:57:37.202Z,5.30
2022-10-12T00:58:40.607Z,5.97
2022-10-12T00:59:45.337Z,6.47
2022-10-12T01:00:48.406Z,5.80
2022-10-12T01:01:50.675Z,5.88
2022-10-12T01:02:55.191Z,5.60
2022-10-12T01:03:57.798Z,6.20
2022-10-12T01:05:01.444Z,6.05
2022-10-12T01:06:03.837Z,5.82
2022-10-12T01:07:06.837Z,5.93
2022-10-12T01:08:13.513Z,5.13
2022-10-12T01:09:17.271Z,5.45
2022-10-12T01:10:24.472Z,5.68
2022-10-12T01:11:27.689Z,5.93
2022-10-12T01:12:31.602Z,6.03
2022-10-12T01:13:34.533Z,6.22
2022-10-12T01:14:39.055Z,6.18
2022-10-12T01:15:47.622Z,6.22
2022-10-12T01:16:56.299Z,6.47
2022-10-12T01:18:00.888Z,5.93
2022-10-12T01:19:11.838Z,5.38
2022-10-12T01:20:36.953Z,6.15
2022-10-12T01:21:42.182Z,6.63
2022-10-12T01:22:47.707Z,5.68
2022-10-12T01:24:16.389Z,7.10
2022-10-12T01:25:30.587Z,6.10
2022-10-12T01:27:12.268Z,6.88
2022-10-12T01:28:19.671Z,5.82
2022-10-12T01:29:39.683Z,5.85
2022-10-12T01:30:44.601Z,5.50
2022-10-12T01:31:51.049Z,6.20
2022-10-12T01:33:10.240Z,5.47
2022-10-12T01:34:18.251Z,5.85
2022-10-12T01:35:25.625Z,5.55
2022-10-12T01:36:32.609Z,6.10
2022-10-12T01:37:41.612Z,7.55
2022-10-12T01:38:50.432Z,6.55
2022-10-12T01:39:54.635Z,5.63
2022-10-12T01:41:01.127Z,5.60
2022-10-12T01:42:07.196Z,5.85
2022-10-12T01:43:11.719Z,6.13
2022-10-12T01:44:21.511Z,6.40
2022-10-12T01:45:24.821Z,6.03
2022-10-12T01:46:52.172Z,6.30
2022-10-12T01:47:56.053Z,6.45
2022-10-12T01:48:59.425Z,6.60
2022-10-12T01:50:03.042Z,6.22
2022-10-12T01:51:04.997Z,5.78
2022-10-12T01:52:26.872Z,5.60
2022-10-12T01:53:33.405Z,7.00
2022-10-12T01:54:48.159Z,6.50
2022-10-12T01:55:53.454Z,6.43
2022-10-12T01:56:59.845Z,6.47
2022-10-12T01:58:18.197Z,6.15
2022-10-12T01:59:27.153Z,6.70
2022-10-12T02:00:30.897Z,5.80
2022-10-12T02:01:37.089Z,6.53
2022-10-12T02:02:48.965Z,6.10
2022-10-12T02:03:55.440Z,6.30
2022-10-12T02:04:59.656Z,6.22
2022-10-12T02:06:07.042Z,7.05
2022-10-12T02:07:12.828Z,6.00
2022-10-12T02:08:21.383Z,6.05
2022-10-12T02:09:26.798Z,6.10
2022-10-12T02:10:34.671Z,6.50
2022-10-12T02:11:38.493Z,7.03
2022-10-12T02:12:43.901Z,6.55
2022-10-12T02:13:48.578Z,7.45
2022-10-12T02:14:54.501Z,6.82
2022-10-12T02:15:58.833Z,6.57
2022-10-12T02:17:04.609Z,6.47
2022-10-12T02:18:09.496Z,6.53
2022-10-12T02:19:14.864Z,6.30
2022-10-12T02:20:17.530Z,6.72
2022-10-12T02:21:22.028Z,6.78
2022-10-12T02:22:25.011Z,6.88
2022-10-12T02:23:28.798Z,6.28
2022-10-12T02:24:32.188Z,6.78
2022-10-12T02:25:35.692Z,6.43
2022-10-12T02:26:42.745Z,6.38
2022-10-12T02:27:50.288Z,6.22
2022-10-12T02:28:51.875Z,7.30
2022-10-12T02:29:58.700Z,6.55
2022-10-12T02:31:04.540Z,7.10
2022-10-12T02:32:11.745Z,6.90
2022-10-12T02:33:21.330Z,6.63
2022-10-12T02:34:26.460Z,7.72
2022-10-12T02:35:32.809Z,6.68
2022-10-12T02:36:38.934Z,6.45
2022-10-12T02:37:44.603Z,7.20
2022-10-12T02:38:51.964Z,6.30
2022-10-12T02:39:56.220Z,6.72
2022-10-12T02:41:03.058Z,6.55
2022-10-12T02:42:11.361Z,6.78
2022-10-12T02:43:18.589Z,7.32
2022-10-12T02:44:22.372Z,7.20
2022-10-12T02:45:26.079Z,6.70
2022-10-12T02:46:29.470Z,6.70
2022-10-12T02:47:34.048Z,7.97
2022-10-12T02:48:40.792Z,6.82
2022-10-12T02:49:45.760Z,7.50
2022-10-12T02:50:48.052Z,6.78
2022-10-12T02:51:54.396Z,8.02
2022-10-12T02:52:56.699Z,7.40
2022-10-12T02:53:59.434Z,7.60
2022-10-12T02:55:01.141Z,6.45
2022-10-12T02:56:05.917Z,7.47
2022-10-12T02:57:07.608Z,6.50
2022-10-12T02:58:10.390Z,7.22
2022-10-12T02:59:13.747Z,7.25
2022-10-12T03:00:16.678Z,7.10
2022-10-12T03:01:19.695Z,6.10
2022-10-12T03:02:21.440Z,6.57
2022-10-12T03:03:24.074Z,7.20
2022-10-12T03:04:26.994Z,7.35
2022-10-12T03:05:29.511Z,7.75
2022-10-12T03:06:31.148Z,7.82
2022-10-12T03:07:33.633Z,6.65
2022-10-12T03:08:35.247Z,6.57
2022-10-12T03:09:37.748Z,6.40
2022-10-12T03:10:39.329Z,7.05
2022-10-12T03:11:43.784Z,7.75
2022-10-12T03:12:49.843Z,7.28
2022-10-12T03:13:53.209Z,7.32
2022-10-12T03:14:54.765Z,6.65
2022-10-12T03:16:02.566Z,6.93
2022-10-12T03:17:04.277Z,6.25
2022-10-12T03:18:06.869Z,7.00
2022-10-12T03:19:08.597Z,7.47
2022-10-12T03:20:13.209Z,7.60
2022-10-12T03:21:14.866Z,6.43
2022-10-12T03:22:17.394Z,7.15
2022-10-12T03:23:18.930Z,6.88
2022-10-12T03:24:21.455Z,6.90
2022-10-12T03:25:23.160Z,7.40
2022-10-12T03:26:25.709Z,6.97
2022-10-12T03:27:27.292Z,6.82
2022-10-12T03:28:30.618Z,7.03
2022-10-12T03:29:32.379Z,7.15
2022-10-12T03:30:34.949Z,6.15
2022-10-12T03:31:36.835Z,6.70
2022-10-12T03:32:39.812Z,6.57
2022-10-12T03:33:41.511Z,6.47
2022-10-12T03:34:44.021Z,6.45
2022-10-12T03:35:47.134Z,6.97
2022-10-12T03:36:49.651Z,7.38
2022-10-12T03:37:51.183Z,6.45
2022-10-12T03:38:53.658Z,6.63
2022-10-12T03:39:55.176Z,6.30
2022-10-12T03:40:58.197Z,5.95
2022-10-12T03:42:01.698Z,6.40
2022-10-12T03:43:04.230Z,5.82
2022-10-12T03:44:05.761Z,7.07
2022-10-12T03:45:09.438Z,6.68
2022-10-12T03:46:12.085Z,6.90
2022-10-12T03:47:14.676Z,6.65
2022-10-12T03:48:16.375Z,6.80
2022-10-12T03:49:18.891Z,7.18
2022-10-12T03:50:20.428Z,7.05
2022-10-12T03:51:24.303Z,7.03
2022-10-12T03:52:26.197Z,6.15
2022-10-12T03:53:28.817Z,6.20
2022-10-12T03:54:30.665Z,6.70
2022-10-12T03:55:33.452Z,7.22
2022-10-12T03:56:35.176Z,7.22
2022-10-12T03:57:38.317Z,6.75
2022-10-12T03:58:40.056Z,6.35
2022-10-12T03:59:42.796Z,6.22
2022-10-12T04:00:44.412Z,6.60
2022-10-12T04:01:47.001Z,6.63
2022-10-12T04:02:53.145Z,5.93
2022-10-12T04:03:55.943Z,5.93
2022-10-12T04:04:57.499Z,6.72
2022-10-12T04:06:00.233Z,6.78
2022-10-12T04:07:03.184Z,6.82
2022-10-12T04:08:06.132Z,6.38
2022-10-12T04:09:07.654Z,7.50
2022-10-12T04:10:10.813Z,7.10
2022-10-12T04:11:12.357Z,6.05
2022-10-12T04:12:14.936Z,6.93
2022-10-12T04:13:16.471Z,7.22
2022-10-12T04:14:19.009Z,8.32
2022-10-12T04:16:30.391Z,7.18
2022-10-12T04:17:32.847Z,6.93
2022-10-12T04:18:35.803Z,6.93
2022-10-12T04:19:37.397Z,7.40
2022-10-12T04:20:39.933Z,7.68
2022-10-12T04:21:41.568Z,7.10
2022-10-12T04:22:45.512Z,7.65
2022-10-12T04:23:47.076Z,6.22
2022-10-12T04:24:49.573Z,8.05
2022-10-12T04:25:51.303Z,6.50
2022-10-12T04:26:53.853Z,7.35
2022-10-12T04:27:55.580Z,7.65
2022-10-12T04:28:58.049Z,6.70
2022-10-12T04:29:59.574Z,6.38
2022-10-12T04:31:02.375Z,6.40
2022-10-12T04:32:04.727Z,6.82
2022-10-12T04:33:09.416Z,6.88
2022-10-12T04:34:11.177Z,7.40
2022-10-12T04:35:13.665Z,8.15
2022-10-12T04:36:15.218Z,7.40
2022-10-12T04:37:17.701Z,7.28
2022-10-12T04:38:20.573Z,6.18
2022-10-12T04:39:23.052Z,6.60
2022-10-12T04:40:24.617Z,7.53
2022-10-12T04:41:27.212Z,6.13
2022-10-12T04:42:28.778Z,6.90
2022-10-12T04:43:31.281Z,6.68
2022-10-12T04:44:32.917Z,6.93
2022-10-12T04:45:35.435Z,6.55
2022-10-12T04:46:36.977Z,5.75
2022-10-12T04:47:39.798Z,6.15
2022-10-12T04:48:41.573Z,6.90
2022-10-12T04:49:44.074Z,6.50
2022-10-12T04:50:45.611Z,6.18
2022-10-12T04:51:48.140Z,6.22
2022-10-12T04:52:49.974Z,7.13
2022-10-12T04:53:53.872Z,7.07
2022-10-12T04:54:55.431Z,7.18
2022-10-12T04:55:58.108Z,7.72
2022-10-12T04:56:59.819Z,7.82
2022-10-12T04:58:02.498Z,7.20
2022-10-12T04:59:04.506Z,7.90
2022-10-12T05:00:08.209Z,7.43
2022-10-12T05:01:10.214Z,7.18
2022-10-12T05:02:15.871Z,7.05
2022-10-12T05:03:18.380Z,7.07
2022-10-12T05:04:20.111Z,7.15
2022-10-12T05:05:22.610Z,5.85
2022-10-12T05:06:24.237Z,6.55
2022-10-12T05:07:26.765Z,6.53
2022-10-12T05:08:28.300Z,6.80
2022-10-12T05:09:32.187Z,7.03
2022-10-12T05:10:33.707Z,6.63
2022-10-12T05:11:36.272Z,6.18
2022-10-12T05:12:38.202Z,6.30
2022-10-12T05:13:41.046Z,6.45
2022-10-12T05:14:44.135Z,6.90
2022-10-12T05:15:46.820Z,6.78
2022-10-12T05:16:48.398Z,6.47
2022-10-12T05:17:50.941Z,6.97
2022-10-12T05:18:52.486Z,6.32
2022-10-12T05:19:55.178Z,6.22
2022-10-12T05:20:57.329Z,6.47
2022-10-12T05:21:59.920Z,7.03
2022-10-12T05:23:01.647Z,7.25
2022-10-12T05:24:04.451Z,6.65
2022-10-12T05:25:09.103Z,6.95
2022-10-12T05:26:12.212Z,6.85
2022-10-12T05:27:13.758Z,7.15
2022-10-12T05:28:16.434Z,6.90
2022-10-12T05:29:17.990Z,8.30
2022-10-12T05:30:20.489Z,7.30
2022-10-12T05:31:22.773Z,6.97
2022-10-12T05:32:25.597Z,6.30
2022-10-12T05:33:27.230Z,7.47
2022-10-12T05:34:29.785Z,7.10
2022-10-12T05:35:31.363Z,7.00
2022-10-12T05:36:33.883Z,7.97
2022-10-12T05:37:36.969Z,6.90
2022-10-12T05:38:39.655Z,8.18
2022-10-12T05:39:41.246Z,7.53
2022-10-12T05:40:45.473Z,7.55
2022-10-12T05:41:47.043Z,6.70
2022-10-12T05:42:49.549Z,7.65
2022-10-12T05:43:51.141Z,7.15
2022-10-12T05:44:53.651Z,7.45
2022-10-12T05:45:55.456Z,7.10
2022-10-12T05:46:58.049Z,6.88
2022-10-12T05:47:59.574Z,8.70
2022-10-12T05:49:02.251Z,5.97
2022-10-12T05:50:04.446Z,7.53
2022-10-12T05:51:07.339Z,7.88
2022-10-12T05:52:08.908Z,7.68
2022-10-12T05:53:11.711Z,8.10
2022-10-12T05:54:13.297Z,7.15
2022-10-12T05:55:15.931Z,7.40
2022-10-12T05:56:19.101Z,7.47
2022-10-12T05:57:21.631Z,6.85
2022-10-12T05:58:23.949Z,7.55
2022-10-12T05:59:26.500Z,7.80
2022-10-12T06:00:28.061Z,8.70
2022-10-12T06:01:31.956Z,8.25
2022-10-12T06:02:33.540Z,8.40
2022-10-12T06:03:36.200Z,8.23
2022-10-12T06:04:37.736Z,7.80
2022-10-12T06:05:40.200Z,7.95
2022-10-12T06:06:41.921Z,8.00
2022-10-12T06:07:44.446Z,7.35
2022-10-12T06:08:46.997Z,6.25
2022-10-12T06:09:49.050Z,6.93
2022-10-12T06:10:52.637Z,7.40
2022-10-12T06:11:55.679Z,7.60
2022-10-12T06:12:58.166Z,7.47
2022-10-12T06:13:59.743Z,7.10
2022-10-12T06:15:02.510Z,8.05
2022-10-12T06:16:04.431Z,7.38
2022-10-12T06:17:07.663Z,7.18
2022-10-12T06:18:10.118Z,7.22
2022-10-12T06:19:15.122Z,7.63
2022-10-12T06:20:16.882Z,7.13
2022-10-12T06:21:33.151Z,6.68
2022-10-12T06:22:36.492Z,6.70
2022-10-12T06:23:38.477Z,7.50
2022-10-12T06:24:41.013Z,6.57
2022-10-12T06:25:42.684Z,7.30
2022-10-12T06:26:45.172Z,6.82
2022-10-12T06:27:48.093Z,7.55
2022-10-12T06:28:50.614Z,7.22
2022-10-12T06:29:52.176Z,7.80
2022-10-12T06:30:55.520Z,6.90
2022-10-12T06:31:57.118Z,6.53
2022-10-12T06:32:59.647Z,7.40
2022-10-12T06:34:01.510Z,6.65
2022-10-12T06:35:04.305Z,7.18
2022-10-12T06:36:06.240Z,6.68
2022-10-12T06:37:16.373Z,6.82
2022-10-12T06:38:31.240Z,7.78
2022-10-12T06:39:33.768Z,6.82
2022-10-12T06:40:35.489Z,7.28
2022-10-12T06:41:38.918Z,8.57
2022-10-12T06:42:40.777Z,6.80
2022-10-12T06:43:45.152Z,6.38
2022-10-12T06:44:46.678Z,7.93
2022-10-12T06:45:51.294Z,7.30
2022-10-12T06:46:53.344Z,7.05
2022-10-12T06:47:55.840Z,7.03
2022-10-12T06:48:57.379Z,7.18
2022-10-12T06:49:59.899Z,7.47
2022-10-12T06:51:02.771Z,6.65
2022-10-12T06:52:04.631Z,6.30
2022-10-12T06:53:07.124Z,7.47
2022-10-12T06:54:08.645Z,7.03
2022-10-12T06:55:11.963Z,6.60
2022-10-12T06:56:13.688Z,7.00
2022-10-12T06:57:16.194Z,6.72
2022-10-12T06:58:17.753Z,7.40
2022-10-12T06:59:22.733Z,6.90
2022-10-12T07:00:25.451Z,7.03
2022-10-12T07:01:27.080Z,6.57
2022-10-12T07:02:29.665Z,6.85
2022-10-12T07:03:31.480Z,7.70
2022-10-12T07:04:34.001Z,7.63
2022-10-12T07:05:35.566Z,6.95
2022-10-12T07:06:38.089Z,7.47
2022-10-12T07:07:40.600Z,7.20
2022-10-12T07:08:43.193Z,6.88
2022-10-12T07:09:44.780Z,7.70
2022-10-12T07:10:48.036Z,6.57
2022-10-12T07:11:49.556Z,7.38
2022-10-12T07:12:52.058Z,7.50
2022-10-12T07:13:53.666Z,7.80
2022-10-12T07:14:58.882Z,7.05
2022-10-12T07:16:00.529Z,7.78
2022-10-12T07:17:03.092Z,6.90
2022-10-12T07:18:04.762Z,8.68
2022-10-12T07:19:07.464Z,7.47
2022-10-12T07:20:10.953Z,6.95
2022-10-12T07:21:12.511Z,7.55
2022-10-12T07:22:15.036Z,7.25
2022-10-12T07:23:16.617Z,7.35
2022-10-12T07:24:22.054Z,8.27
2022-10-12T07:25:23.598Z,7.47
2022-10-12T07:26:26.232Z,7.57
2022-10-12T07:27:27.769Z,7.32
2022-10-12T07:28:30.571Z,6.47
2022-10-12T07:29:32.663Z,6.75
2022-10-12T07:30:37.068Z,6.07
2022-10-12T07:31:39.688Z,7.20
2022-10-12T07:32:42.526Z,6.85
2022-10-12T07:33:45.079Z,7.65
2022-10-12T07:34:47.588Z,7.32
2022-10-12T07:36:12.740Z,7.68
2022-10-12T07:37:16.680Z,6.68
2022-10-12T07:38:18.220Z,6.15
2022-10-12T07:39:21.308Z,6.13
2022-10-12T07:40:22.841Z,5.50
2022-10-12T07:41:25.389Z,5.43
2022-10-12T07:42:26.912Z,4.70
2022-10-12T07:43:29.913Z,6.15
2022-10-12T07:44:31.700Z,5.03
2022-10-12T07:45:34.207Z,5.15
2022-10-12T07:46:38.100Z,5.70
2022-10-12T07:47:39.853Z,5.60
2022-10-12T07:48:47.499Z,4.85
2022-10-12T07:49:51.473Z,3.97
2022-10-12T07:50:54.090Z,4.72
2022-10-12T07:51:55.654Z,4.60
2022-10-12T07:52:58.652Z,4.65
2022-10-12T07:54:00.252Z,4.40
2022-10-12T07:55:02.875Z,4.88
2022-10-12T07:56:07.568Z,4.63
2022-10-12T07:57:10.318Z,5.00
2022-10-12T07:58:12.966Z,4.93
2022-10-12T07:59:15.489Z,4.45
2022-10-12T08:00:17.411Z,4.45
2022-10-12T08:01:21.001Z,4.40
2022-10-12T08:02:24.966Z,4.63
2022-10-12T08:03:26.507Z,4.35
2022-10-12T08:04:29.008Z,4.00
2022-10-12T08:05:30.603Z,4.53
2022-10-12T08:06:34.737Z,4.00
2022-10-12T08:07:36.741Z,4.15
2022-10-12T08:08:40.152Z,5.00
2022-10-12T08:09:42.034Z,3.80
2022-10-12T08:10:44.546Z,4.32
2022-10-12T08:11:46.097Z,4.95
2022-10-12T08:12:52.102Z,4.75
2022-10-12T08:13:55.935Z,4.97
2022-10-12T08:14:57.509Z,4.25
2022-10-12T08:16:00.434Z,4.72
2022-10-12T08:17:03.013Z,4.07
2022-10-12T08:18:06.939Z,4.45
2022-10-12T08:19:08.557Z,4.10
2022-10-12T08:20:11.851Z,4.13
2022-10-12T08:21:16.345Z,4.03
2022-10-12T08:22:18.947Z,4.75
2022-10-12T08:23:20.523Z,4.47
2022-10-12T08:24:23.105Z,3.95
2022-10-12T08:25:24.631Z,3.88
2022-10-12T08:26:27.430Z,3.83
2022-10-12T08:27:31.192Z,4.35
2022-10-12T08:28:33.863Z,3.95
2022-10-12T08:29:36.463Z,4.78
2022-10-12T08:30:39.868Z,4.05
2022-10-12T08:31:41.418Z,3.95
2022-10-12T08:32:43.995Z,4.28
2022-10-12T08:33:47.871Z,3.80
2022-10-12T08:34:50.353Z,3.97
2022-10-12T08:35:52.976Z,4.05
2022-10-12T08:36:55.572Z,4.25
2022-10-12T08:37:57.120Z,4.45
2022-10-12T08:38:59.678Z,4.57
2022-10-12T08:40:03.472Z,3.85
2022-10-12T08:41:15.265Z,4.18
2022-10-12T08:42:32.618Z,3.90
2022-10-12T08:43:46.607Z,4.35
2022-10-12T08:45:00.695Z,3.65
2022-10-12T08:46:03.120Z,3.90
2022-10-12T08:47:10.615Z,3.22
2022-10-12T08:48:14.491Z,3.80
2022-10-12T08:49:20.236Z,3.75
2022-10-12T08:50:33.464Z,3.03
2022-10-12T08:51:44.044Z,3.63
2022-10-12T08:52:51.632Z,4.40
2022-10-12T08:53:56.289Z,3.80
2022-10-12T08:55:02.080Z,3.85
2022-10-12T08:56:04.820Z,3.67
2022-10-12T08:57:10.305Z,2.85
2022-10-12T08:58:16.786Z,3.38
2022-10-12T08:59:20.113Z,3.00
2022-10-12T09:00:22.956Z,3.58
2022-10-12T09:01:30.483Z,4.35
2022-10-12T09:02:39.436Z,3.67
2022-10-12T09:03:50.314Z,3.70
2022-10-12T09:04:57.095Z,4.63
2022-10-12T09:06:08.195Z,3.65
2022-10-12T09:07:13.305Z,4.43
2022-10-12T09:08:23.909Z,3.90
2022-10-12T09:09:41.521Z,3.70
2022-10-12T09:10:47.935Z,3.17
2022-10-12T09:12:02.418Z,3.42
2022-10-12T09:13:10.519Z,3.63
2022-10-12T09:14:18.328Z,4.05
2022-10-12T09:15:22.914Z,4.28
2022-10-12T09:16:27.304Z,3.17
2022-10-12T09:17:32.760Z,3.55
2022-10-12T09:18:41.071Z,3.72
2022-10-12T09:19:43.904Z,3.55
2022-10-12T09:20:48.857Z,4.15
2022-10-12T09:21:51.515Z,3.58
2022-10-12T09:22:56.018Z,3.90
2022-10-12T09:23:59.187Z,3.10
2022-10-12T09:25:01.392Z,4.07
2022-10-12T09:26:11.743Z,3.83
2022-10-12T09:27:15.897Z,4.03
2022-10-12T09:28:22.000Z,3.85
2022-10-12T09:29:26.650Z,3.47
2022-10-12T09:30:28.613Z,4.05
2022-10-12T09:31:43.115Z,3.65
2022-10-12T09:33:02.209Z,3.85
2022-10-12T09:34:06.915Z,4.13
2022-10-12T09:35:11.904Z,3.88
2022-10-12T09:36:20.151Z,4.00
2022-10-12T09:37:23.769Z,3.47
2022-10-12T09:38:26.716Z,3.80
2022-10-12T09:39:31.366Z,4.97
2022-10-12T09:40:34.072Z,4.13
2022-10-12T09:41:38.108Z,3.83
2022-10-12T09:42:40.848Z,3.80
2022-10-12T09:43:43.518Z,3.65
2022-10-12T09:44:48.389Z,3.72
2022-10-12T09:45:50.061Z,3.70
2022-10-12T09:46:56.398Z,4.47
2022-10-12T09:48:17.602Z,3.30
2022-10-12T09:49:20.294Z,3.05
2022-10-12T09:50:39.758Z,3.38
2022-10-12T09:51:44.094Z,3.33
2022-10-12T09:52:45.907Z,3.22
2022-10-12T09:53:49.975Z,2.88
2022-10-12T09:54:56.168Z,4.25
2022-10-12T09:56:02.131Z,3.58
2022-10-12T09:57:04.754Z,3.42
2022-10-12T09:58:18.802Z,3.00
2022-10-12T09:59:28.013Z,3.00
2022-10-12T10:00:31.087Z,3.40
2022-10-12T10:01:36.981Z,2.85
2022-10-12T10:02:49.009Z,3.00
2022-10-12T10:04:08.749Z,3.55
2022-10-12T10:05:20.672Z,3.08
2022-10-12T10:06:25.796Z,2.65
2022-10-12T10:07:31.278Z,2.60
2022-10-12T10:08:40.735Z,2.22
2022-10-12T10:09:43.213Z,2.45
2022-10-12T10:10:49.090Z,2.50
2022-10-12T10:11:51.592Z,2.80
2022-10-12T10:12:55.764Z,2.38
2022-10-12T10:13:59.485Z,2.08
2022-10-12T10:15:02.181Z,3.17
2022-10-12T10:16:05.427Z,2.30
2022-10-12T10:17:07.932Z,2.90
2022-10-12T10:18:29.090Z,2.80
2022-10-12T10:19:31.783Z,2.80
2022-10-12T10:20:36.406Z,2.95
2022-10-12T10:21:40.612Z,3.33
2022-10-12T10:22:48.554Z,2.90
2022-10-12T10:23:52.724Z,3.10
2022-10-12T10:25:00.250Z,2.58
2022-10-12T10:26:05.074Z,2.70
2022-10-12T10:27:08.164Z,2.83
2022-10-12T10:28:21.749Z,3.45
2022-10-12T10:29:32.179Z,2.75
2022-10-12T10:30:39.672Z,2.60
2022-10-12T10:31:46.259Z,3.17
2022-10-12T10:32:48.641Z,2.92
2022-10-12T10:34:14.736Z,3.55
2022-10-12T10:35:21.598Z,2.90
2022-10-12T10:36:25.526Z,3.33
2022-10-12T10:37:27.657Z,2.55
2022-10-12T10:38:34.565Z,2.80
2022-10-12T10:39:44.779Z,2.30
2022-10-12T10:40:51.994Z,2.95
2022-10-12T10:41:55.902Z,2.97
2022-10-12T10:42:59.128Z,2.47
2022-10-12T10:44:01.681Z,2.53
2022-10-12T10:45:07.243Z,2.78
2022-10-12T10:46:09.896Z,2.63
2022-10-12T10:47:12.482Z,3.03
2022-10-12T10:48:17.853Z,2.72
2022-10-12T10:49:25.994Z,2.58
2022-10-12T10:50:32.981Z,2.88
2022-10-12T10:51:45.501Z,2.53
2022-10-12T10:52:55.132Z,2.30
2022-10-12T10:54:15.150Z,2.53
2022-10-12T10:55:21.013Z,2.88
2022-10-12T10:56:26.029Z,3.30
2022-10-12T10:57:27.777Z,3.22
2022-10-12T10:58:35.809Z,2.10
2022-10-12T10:59:42.549Z,2.50
2022-10-12T11:00:45.938Z,2.35
2022-10-12T11:01:51.635Z,2.92
2022-10-12T11:02:56.610Z,3.10
2022-10-12T11:04:01.273Z,2.80
2022-10-12T11:05:06.946Z,2.78
2022-10-12T11:06:18.721Z,3.00
2022-10-12T11:07:24.212Z,3.25
2022-10-12T11:08:28.143Z,3.13
2022-10-12T11:09:39.549Z,3.35
2022-10-12T11:10:43.932Z,2.75
2022-10-12T11:11:49.694Z,2.33
2022-10-12T11:12:56.347Z,2.45
2022-10-12T11:14:02.092Z,2.80
2022-10-12T11:15:08.420Z,2.40
2022-10-12T11:16:16.150Z,2.67
2022-10-12T11:17:20.521Z,3.03
2022-10-12T11:18:26.941Z,2.70
2022-10-12T11:19:36.523Z,2.45
2022-10-12T11:20:44.055Z,2.53
2022-10-12T11:21:48.965Z,2.67
2022-10-12T11:22:53.516Z,2.55
2022-10-12T11:24:00.178Z,2.63
2022-10-12T11:25:09.173Z,2.40
2022-10-12T11:26:25.423Z,2.50
2022-10-12T11:27:31.839Z,2.70
2022-10-12T11:28:33.924Z,2.05
2022-10-12T11:29:37.609Z,2.10
2022-10-12T11:30:42.657Z,2.90
2022-10-12T11:31:51.427Z,2.47
2022-10-12T11:32:55.164Z,3.40
2022-10-12T11:34:01.163Z,2.60
2022-10-12T11:35:04.995Z,1.90
2022-10-12T11:36:09.632Z,2.35
2022-10-12T11:37:20.537Z,1.85
2022-10-12T11:38:28.014Z,2.72
2022-10-12T11:39:33.511Z,2.70
2022-10-12T11:42:21.372Z,3.45
2022-10-12T11:43:26.501Z,2.60
2022-10-12T11:44:31.539Z,2.70
2022-10-12T11:45:39.148Z,2.80
2022-10-12T11:46:45.147Z,2.83
2022-10-12T11:47:49.139Z,2.28
2022-10-12T11:48:55.131Z,3.00
2022-10-12T11:50:00.223Z,2.38
2022-10-12T11:51:04.307Z,3.10
2022-10-12T11:52:11.893Z,3.10
2022-10-12T11:53:17.497Z,2.72
2022-10-12T11:54:27.605Z,2.88
2022-10-12T11:55:58.351Z,2.95
2022-10-12T11:57:03.604Z,2.95
2022-10-12T11:58:13.503Z,2.58
2022-10-12T11:59:19.757Z,2.85
2022-10-12T12:00:23.986Z,2.20
2022-10-12T12:01:48.300Z,2.47
2022-10-12T12:02:53.553Z,1.67
2022-10-12T12:04:47.948Z,2.47
2022-10-12T12:05:50.210Z,2.28
2022-10-12T12:06:57.377Z,2.20
2022-10-12T12:08:00.005Z,2.40
2022-10-12T12:09:17.526Z,2.28
2022-10-12T12:11:02.823Z,2.78
2022-10-12T12:12:16.086Z,2.10
2022-10-12T12:13:22.813Z,2.30
2022-10-12T12:15:00.578Z,2.10
2022-10-12T12:16:33.937Z,1.92
2022-10-12T12:17:38.074Z,2.50
2022-10-12T12:19:14.010Z,2.42
2022-10-12T12:20:56.184Z,2.10
2022-10-12T12:22:26.294Z,2.25
2022-10-12T12:23:29.734Z,2.47
2022-10-12T12:24:31.379Z,2.70
2022-10-12T12:25:34.122Z,2.40
2022-10-12T12:26:35.717Z,2.55
2022-10-12T12:27:42.022Z,2.38
2022-10-12T12:28:46.114Z,3.08
2022-10-12T12:29:50.595Z,2.15
2022-10-12T12:30:58.802Z,2.42
2022-10-12T12:32:00.550Z,2.50
2022-10-12T12:33:04.936Z,2.65
2022-10-12T12:34:12.226Z,1.90
2022-10-12T12:35:27.337Z,1.55
2022-10-12T12:36:32.408Z,2.00
2022-10-12T12:37:34.306Z,2.60
2022-10-12T12:38:38.464Z,2.60
2022-10-12T12:39:40.462Z,2.30
2022-10-12T12:40:55.734Z,2.10
2022-10-12T12:42:02.213Z,1.90
2022-10-12T12:43:30.847Z,2.05
2022-10-12T12:44:40.419Z,2.10
2022-10-12T12:45:55.114Z,1.83
2022-10-12T12:49:03.084Z,2.67
2022-10-12T12:50:33.507Z,2.13
2022-10-12T12:51:40.401Z,1.88
2022-10-12T12:52:42.876Z,1.50
2022-10-12T12:53:47.367Z,1.60
2022-10-12T12:55:16.610Z,1.50
2022-10-12T12:56:22.099Z,1.55
2022-10-12T12:57:37.110Z,1.83
2022-10-12T12:58:55.618Z,1.63
2022-10-12T13:00:13.294Z,1.60
2022-10-12T13:01:26.056Z,1.42
2022-10-12T13:02:49.280Z,1.88
2022-10-12T13:04:22.090Z,1.90
2022-10-12T13:05:38.354Z,2.28
2022-10-12T13:07:22.826Z,1.52
2022-10-12T13:08:33.581Z,1.98
2022-10-12T13:09:59.391Z,1.52
2022-10-12T13:11:29.175Z,1.48
2022-10-12T13:13:13.205Z,1.50
2022-10-12T13:14:29.649Z,1.45
2022-10-12T13:15:40.466Z,1.40
2022-10-12T13:17:31.766Z,1.52
2022-10-12T13:18:47.116Z,1.30
2022-10-12T13:19:50.651Z,1.20
2022-10-12T13:20:52.543Z,1.80
2022-10-12T13:21:56.581Z,1.60
2022-10-12T13:22:59.396Z,1.70
2022-10-12T13:24:05.849Z,1.60
2022-10-12T13:25:13.008Z,1.35
2022-10-12T13:26:19.070Z,1.48
2022-10-12T13:27:25.258Z,1.65
2022-10-12T13:28:30.593Z,1.65
2022-10-12T13:29:37.628Z,1.60
2022-10-12T13:30:42.571Z,1.38
2022-10-12T13:31:46.203Z,1.70
2022-10-12T13:32:52.413Z,1.40
2022-10-12T13:33:59.973Z,1.70
2022-10-12T13:35:11.643Z,1.80
2022-10-12T13:36:20.449Z,1.83
2022-10-12T13:37:30.290Z,2.20
2022-10-12T13:38:35.053Z,1.25
2022-10-12T13:39:38.901Z,1.33
2022-10-12T13:40:43.505Z,1.63
2022-10-12T13:41:46.830Z,1.45
2022-10-12T13:42:48.353Z,1.80
2022-10-12T13:43:54.468Z,1.50
2022-10-12T13:44:58.559Z,1.88
2022-10-12T13:46:01.766Z,1.52
2022-10-12T13:47:21.568Z,1.67
2022-10-12T13:48:46.488Z,1.65
2022-10-12T13:49:47.830Z,2.35
2022-10-12T13:50:58.175Z,1.65
2022-10-12T13:52:02.234Z,1.60
2022-10-12T13:53:15.871Z,1.98
2022-10-12T13:54:22.253Z,2.35
2022-10-12T13:55:26.096Z,1.92
2022-10-12T13:56:30.135Z,2.17
2022-10-12T13:57:36.501Z,1.98
2022-10-12T13:58:38.299Z,1.92
2022-10-12T13:59:40.925Z,2.20
2022-10-12T14:00:47.021Z,1.90
2022-10-12T14:02:00.684Z,2.17
2022-10-12T14:03:06.175Z,1.52
2022-10-12T14:04:14.339Z,2.80
2022-10-12T14:05:19.350Z,2.35
2022-10-12T14:06:28.020Z,2.13
2022-10-12T14:07:34.018Z,1.52
2022-10-12T14:08:36.793Z,2.30
2022-10-12T14:09:42.925Z,1.85
2022-10-12T14:10:45.615Z,1.98
2022-10-12T14:11:47.730Z,2.58
2022-10-12T14:12:51.994Z,2.55
2022-10-12T14:13:54.297Z,1.40
2022-10-12T14:14:57.481Z,3.80
2022-10-12T14:16:02.880Z,2.03
2022-10-12T14:17:04.654Z,2.10
2022-10-12T14:18:35.341Z,2.40
2022-10-12T14:19:44.910Z,1.70
2022-10-12T14:20:47.573Z,1.70
2022-10-12T14:21:49.798Z,1.80
2022-10-12T14:22:52.375Z,2.15
2022-10-12T14:23:56.988Z,2.00
2022-10-12T14:25:10.583Z,2.55
2022-10-12T14:26:24.049Z,2.10
2022-10-12T14:27:29.361Z,2.05
2022-10-12T14:28:32.680Z,1.50
2022-10-12T14:29:37.868Z,2.42
2022-10-12T14:30:51.976Z,2.42
2022-10-12T14:31:56.748Z,2.15
2022-10-12T14:33:11.658Z,1.83
2022-10-12T14:34:23.806Z,2.17
2022-10-12T14:35:27.996Z,2.28
2022-10-12T14:36:29.606Z,2.25
2022-10-12T14:37:32.310Z,2.30
2022-10-12T14:38:40.285Z,2.47